sensor_id;sensor_type;location;lat;lon;timestamp;P1;durP1;ratioP1;P2;durP2;ratioP2
26822;SDS011;14852;51.910;8.878;2024-01-06T00:01:59;4.53;;;2.45;;
26822;SDS011;14852;51.910;8.878;2024-01-06T00:04:25;3.00;;;2.40;;
26822;SDS011;14852;51.910;8.878;2024-01-06T00:06:51;4.15;;;2.75;;
26822;SDS011;14852;51.910;8.878;2024-01-06T00:09:17;3.42;;;2.90;;
26822;SDS011;14852;51.910;8.878;2024-01-06T00:11:42;3.22;;;2.55;;
26822;SDS011;14852;51.910;8.878;2024-01-06T00:14:08;2.85;;;2.30;;
26822;SDS011;14852;51.910;8.878;2024-01-06T00:16:34;3.78;;;2.72;;
26822;SDS011;14852;51.910;8.878;2024-01-06T00:19:00;3.70;;;2.60;;
26822;SDS011;14852;51.910;8.878;2024-01-06T00:21:25;3.80;;;2.85;;
26822;SDS011;14852;51.910;8.878;2024-01-06T00:23:51;4.28;;;3.65;;
26822;SDS011;14852;51.910;8.878;2024-01-06T00:26:17;3.78;;;2.97;;
26822;SDS011;14852;51.910;8.878;2024-01-06T00:28:43;4.07;;;3.58;;
26822;SDS011;14852;51.910;8.878;2024-01-06T00:31:08;5.95;;;4.05;;
26822;SDS011;14852;51.910;8.878;2024-01-06T00:33:34;4.30;;;3.90;;
26822;SDS011;14852;51.910;8.878;2024-01-06T00:36:00;4.88;;;3.85;;
26822;SDS011;14852;51.910;8.878;2024-01-06T00:38:26;5.43;;;4.43;;
26822;SDS011;14852;51.910;8.878;2024-01-06T00:40:51;4.25;;;3.85;;
26822;SDS011;14852;51.910;8.878;2024-01-06T00:43:17;5.22;;;4.20;;
26822;SDS011;14852;51.910;8.878;2024-01-06T00:45:43;5.05;;;4.55;;
26822;SDS011;14852;51.910;8.878;2024-01-06T00:48:08;5.88;;;4.68;;
26822;SDS011;14852;51.910;8.878;2024-01-06T00:50:34;4.82;;;4.13;;
26822;SDS011;14852;51.910;8.878;2024-01-06T00:53:00;6.55;;;4.28;;
26822;SDS011;14852;51.910;8.878;2024-01-06T00:55:26;5.57;;;4.43;;
26822;SDS011;14852;51.910;8.878;2024-01-06T00:57:51;7.15;;;5.18;;
26822;SDS011;14852;51.910;8.878;2024-01-06T01:00:17;6.00;;;4.80;;
26822;SDS011;14852;51.910;8.878;2024-01-06T01:02:43;5.75;;;5.15;;
26822;SDS011;14852;51.910;8.878;2024-01-06T01:05:09;6.60;;;5.50;;
26822;SDS011;14852;51.910;8.878;2024-01-06T01:07:35;6.50;;;5.72;;
26822;SDS011;14852;51.910;8.878;2024-01-06T01:10:01;6.63;;;5.60;;
26822;SDS011;14852;51.910;8.878;2024-01-06T01:12:26;6.55;;;5.25;;
26822;SDS011;14852;51.910;8.878;2024-01-06T01:14:52;6.15;;;5.25;;
26822;SDS011;14852;51.910;8.878;2024-01-06T01:17:18;6.40;;;5.43;;
26822;SDS011;14852;51.910;8.878;2024-01-06T01:19:45;5.50;;;4.85;;
26822;SDS011;14852;51.910;8.878;2024-01-06T01:22:11;6.75;;;5.72;;
26822;SDS011;14852;51.910;8.878;2024-01-06T01:24:37;7.00;;;5.75;;
26822;SDS011;14852;51.910;8.878;2024-01-06T01:27:03;7.47;;;5.63;;
26822;SDS011;14852;51.910;8.878;2024-01-06T01:29:29;5.53;;;4.90;;
26822;SDS011;14852;51.910;8.878;2024-01-06T01:31:54;7.38;;;4.95;;
26822;SDS011;14852;51.910;8.878;2024-01-06T01:34:20;5.78;;;5.13;;
26822;SDS011;14852;51.910;8.878;2024-01-06T01:36:46;5.95;;;5.15;;
26822;SDS011;14852;51.910;8.878;2024-01-06T01:39:12;6.40;;;5.65;;
26822;SDS011;14852;51.910;8.878;2024-01-06T01:41:38;5.82;;;4.45;;
26822;SDS011;14852;51.910;8.878;2024-01-06T01:44:05;5.93;;;5.10;;
26822;SDS011;14852;51.910;8.878;2024-01-06T01:46:31;6.95;;;5.95;;
26822;SDS011;14852;51.910;8.878;2024-01-06T01:48:57;8.80;;;5.30;;
26822;SDS011;14852;51.910;8.878;2024-01-06T01:51:29;8.30;;;5.97;;
26822;SDS011;14852;51.910;8.878;2024-01-06T01:53:57;7.53;;;6.13;;
26822;SDS011;14852;51.910;8.878;2024-01-06T01:56:24;6.53;;;5.55;;
26822;SDS011;14852;51.910;8.878;2024-01-06T01:58:51;8.07;;;5.25;;
26822;SDS011;14852;51.910;8.878;2024-01-06T02:01:18;6.22;;;5.22;;
26822;SDS011;14852;51.910;8.878;2024-01-06T02:03:44;6.63;;;5.07;;
26822;SDS011;14852;51.910;8.878;2024-01-06T02:06:10;5.70;;;5.10;;
26822;SDS011;14852;51.910;8.878;2024-01-06T02:08:37;6.00;;;4.80;;
26822;SDS011;14852;51.910;8.878;2024-01-06T02:11:04;6.22;;;5.25;;
26822;SDS011;14852;51.910;8.878;2024-01-06T02:13:36;7.75;;;5.50;;
26822;SDS011;14852;51.910;8.878;2024-01-06T02:16:03;6.55;;;5.78;;
26822;SDS011;14852;51.910;8.878;2024-01-06T02:18:30;6.22;;;4.93;;
26822;SDS011;14852;51.910;8.878;2024-01-06T02:20:58;6.75;;;5.38;;
26822;SDS011;14852;51.910;8.878;2024-01-06T02:23:26;6.80;;;5.00;;
26822;SDS011;14852;51.910;8.878;2024-01-06T02:25:55;10.02;;;5.95;;
26822;SDS011;14852;51.910;8.878;2024-01-06T02:28:21;6.55;;;4.68;;
26822;SDS011;14852;51.910;8.878;2024-01-06T02:30:47;6.75;;;5.18;;
26822;SDS011;14852;51.910;8.878;2024-01-06T02:33:14;6.40;;;4.95;;
26822;SDS011;14852;51.910;8.878;2024-01-06T02:35:40;6.45;;;5.25;;
26822;SDS011;14852;51.910;8.878;2024-01-06T02:38:06;7.25;;;6.35;;
26822;SDS011;14852;51.910;8.878;2024-01-06T02:40:33;6.38;;;5.10;;
26822;SDS011;14852;51.910;8.878;2024-01-06T02:42:59;7.60;;;6.22;;
26822;SDS011;14852;51.910;8.878;2024-01-06T02:45:25;8.05;;;5.13;;
26822;SDS011;14852;51.910;8.878;2024-01-06T02:47:50;6.90;;;5.47;;
26822;SDS011;14852;51.910;8.878;2024-01-06T02:50:16;6.32;;;4.82;;
26822;SDS011;14852;51.910;8.878;2024-01-06T02:52:42;7.35;;;4.80;;
26822;SDS011;14852;51.910;8.878;2024-01-06T02:55:09;7.07;;;5.82;;
26822;SDS011;14852;51.910;8.878;2024-01-06T02:57:35;5.82;;;4.90;;
26822;SDS011;14852;51.910;8.878;2024-01-06T03:00:02;6.65;;;5.38;;
26822;SDS011;14852;51.910;8.878;2024-01-06T03:02:28;6.95;;;5.30;;
26822;SDS011;14852;51.910;8.878;2024-01-06T03:04:54;6.75;;;5.03;;
26822;SDS011;14852;51.910;8.878;2024-01-06T03:07:20;6.57;;;5.10;;
26822;SDS011;14852;51.910;8.878;2024-01-06T03:09:46;6.68;;;4.57;;
26822;SDS011;14852;51.910;8.878;2024-01-06T03:12:12;5.53;;;4.25;;
26822;SDS011;14852;51.910;8.878;2024-01-06T03:14:38;6.03;;;4.63;;
26822;SDS011;14852;51.910;8.878;2024-01-06T03:17:03;6.47;;;5.10;;
26822;SDS011;14852;51.910;8.878;2024-01-06T03:19:32;6.63;;;5.38;;
26822;SDS011;14852;51.910;8.878;2024-01-06T03:21:58;7.45;;;5.32;;
26822;SDS011;14852;51.910;8.878;2024-01-06T03:24:24;6.22;;;4.85;;
26822;SDS011;14852;51.910;8.878;2024-01-06T03:26:51;6.50;;;4.90;;
26822;SDS011;14852;51.910;8.878;2024-01-06T03:29:17;5.28;;;4.07;;
26822;SDS011;14852;51.910;8.878;2024-01-06T03:31:46;5.65;;;4.68;;
26822;SDS011;14852;51.910;8.878;2024-01-06T03:34:12;5.85;;;4.60;;
26822;SDS011;14852;51.910;8.878;2024-01-06T03:36:38;5.88;;;4.88;;
26822;SDS011;14852;51.910;8.878;2024-01-06T03:39:05;5.68;;;4.45;;
26822;SDS011;14852;51.910;8.878;2024-01-06T03:41:31;5.45;;;4.47;;
26822;SDS011;14852;51.910;8.878;2024-01-06T03:43:57;8.02;;;5.30;;
26822;SDS011;14852;51.910;8.878;2024-01-06T03:46:23;5.38;;;3.83;;
26822;SDS011;14852;51.910;8.878;2024-01-06T03:48:49;6.13;;;4.60;;
26822;SDS011;14852;51.910;8.878;2024-01-06T03:51:15;4.80;;;4.15;;
26822;SDS011;14852;51.910;8.878;2024-01-06T03:53:41;5.07;;;3.95;;
26822;SDS011;14852;51.910;8.878;2024-01-06T03:56:07;5.63;;;4.50;;
26822;SDS011;14852;51.910;8.878;2024-01-06T03:58:33;5.05;;;4.50;;
26822;SDS011;14852;51.910;8.878;2024-01-06T04:00:59;5.18;;;3.92;;
26822;SDS011;14852;51.910;8.878;2024-01-06T04:03:25;5.85;;;4.38;;
26822;SDS011;14852;51.910;8.878;2024-01-06T04:05:51;4.40;;;3.65;;
26822;SDS011;14852;51.910;8.878;2024-01-06T04:08:17;5.82;;;4.55;;
26822;SDS011;14852;51.910;8.878;2024-01-06T04:10:43;5.13;;;4.03;;
26822;SDS011;14852;51.910;8.878;2024-01-06T04:13:09;5.30;;;3.90;;
26822;SDS011;14852;51.910;8.878;2024-01-06T04:15:36;5.45;;;3.83;;
26822;SDS011;14852;51.910;8.878;2024-01-06T04:18:02;5.20;;;4.63;;
26822;SDS011;14852;51.910;8.878;2024-01-06T04:20:30;6.13;;;4.35;;
26822;SDS011;14852;51.910;8.878;2024-01-06T04:22:57;6.30;;;3.50;;
26822;SDS011;14852;51.910;8.878;2024-01-06T04:25:23;5.90;;;4.22;;
26822;SDS011;14852;51.910;8.878;2024-01-06T04:27:49;5.03;;;4.18;;
26822;SDS011;14852;51.910;8.878;2024-01-06T04:30:15;5.55;;;4.13;;
26822;SDS011;14852;51.910;8.878;2024-01-06T04:32:41;5.22;;;4.15;;
26822;SDS011;14852;51.910;8.878;2024-01-06T04:35:07;5.60;;;3.78;;
26822;SDS011;14852;51.910;8.878;2024-01-06T04:37:33;4.45;;;3.53;;
26822;SDS011;14852;51.910;8.878;2024-01-06T04:39:59;4.18;;;3.55;;
26822;SDS011;14852;51.910;8.878;2024-01-06T04:42:25;4.30;;;3.60;;
26822;SDS011;14852;51.910;8.878;2024-01-06T04:44:51;4.45;;;3.60;;
26822;SDS011;14852;51.910;8.878;2024-01-06T04:47:17;4.53;;;3.42;;
26822;SDS011;14852;51.910;8.878;2024-01-06T04:49:43;4.28;;;3.67;;
26822;SDS011;14852;51.910;8.878;2024-01-06T04:52:09;6.53;;;4.00;;
26822;SDS011;14852;51.910;8.878;2024-01-06T04:54:35;5.38;;;3.47;;
26822;SDS011;14852;51.910;8.878;2024-01-06T04:57:01;4.18;;;3.22;;
26822;SDS011;14852;51.910;8.878;2024-01-06T04:59:27;5.68;;;4.72;;
26822;SDS011;14852;51.910;8.878;2024-01-06T05:01:53;7.10;;;5.13;;
26822;SDS011;14852;51.910;8.878;2024-01-06T05:04:19;5.22;;;4.20;;
26822;SDS011;14852;51.910;8.878;2024-01-06T05:06:45;6.30;;;4.50;;
26822;SDS011;14852;51.910;8.878;2024-01-06T05:09:11;5.22;;;4.40;;
26822;SDS011;14852;51.910;8.878;2024-01-06T05:11:36;7.05;;;5.35;;
26822;SDS011;14852;51.910;8.878;2024-01-06T05:14:02;6.75;;;4.68;;
26822;SDS011;14852;51.910;8.878;2024-01-06T05:16:28;6.40;;;4.82;;
26822;SDS011;14852;51.910;8.878;2024-01-06T05:18:54;7.03;;;4.57;;
26822;SDS011;14852;51.910;8.878;2024-01-06T05:21:19;6.22;;;5.15;;
26822;SDS011;14852;51.910;8.878;2024-01-06T05:23:45;5.40;;;4.57;;
26822;SDS011;14852;51.910;8.878;2024-01-06T05:26:11;5.07;;;3.85;;
26822;SDS011;14852;51.910;8.878;2024-01-06T05:28:38;5.97;;;5.10;;
26822;SDS011;14852;51.910;8.878;2024-01-06T05:31:05;6.95;;;5.43;;
26822;SDS011;14852;51.910;8.878;2024-01-06T05:33:31;6.97;;;5.45;;
26822;SDS011;14852;51.910;8.878;2024-01-06T05:35:57;7.25;;;5.25;;
26822;SDS011;14852;51.910;8.878;2024-01-06T05:38:22;7.63;;;5.80;;
26822;SDS011;14852;51.910;8.878;2024-01-06T05:40:48;9.10;;;7.28;;
26822;SDS011;14852;51.910;8.878;2024-01-06T05:43:14;8.52;;;6.65;;
26822;SDS011;14852;51.910;8.878;2024-01-06T05:45:40;9.07;;;7.00;;
26822;SDS011;14852;51.910;8.878;2024-01-06T05:48:10;8.73;;;6.68;;
26822;SDS011;14852;51.910;8.878;2024-01-06T05:50:39;8.52;;;6.70;;
26822;SDS011;14852;51.910;8.878;2024-01-06T05:53:05;8.30;;;6.35;;
26822;SDS011;14852;51.910;8.878;2024-01-06T05:55:32;8.70;;;7.22;;
26822;SDS011;14852;51.910;8.878;2024-01-06T05:57:58;8.70;;;6.72;;
26822;SDS011;14852;51.910;8.878;2024-01-06T06:00:23;10.40;;;7.88;;
26822;SDS011;14852;51.910;8.878;2024-01-06T06:02:49;9.90;;;7.97;;
26822;SDS011;14852;51.910;8.878;2024-01-06T06:05:15;8.93;;;7.35;;
26822;SDS011;14852;51.910;8.878;2024-01-06T06:07:41;10.40;;;7.93;;
26822;SDS011;14852;51.910;8.878;2024-01-06T06:10:08;9.90;;;7.38;;
26822;SDS011;14852;51.910;8.878;2024-01-06T06:12:36;9.07;;;7.07;;
26822;SDS011;14852;51.910;8.878;2024-01-06T06:15:02;10.65;;;8.15;;
26822;SDS011;14852;51.910;8.878;2024-01-06T06:17:30;10.27;;;7.72;;
26822;SDS011;14852;51.910;8.878;2024-01-06T06:19:56;10.15;;;7.97;;
26822;SDS011;14852;51.910;8.878;2024-01-06T06:22:23;12.52;;;8.70;;
26822;SDS011;14852;51.910;8.878;2024-01-06T06:24:51;10.18;;;8.18;;
26822;SDS011;14852;51.910;8.878;2024-01-06T06:27:17;11.30;;;7.75;;
26822;SDS011;14852;51.910;8.878;2024-01-06T06:29:43;9.57;;;7.75;;
26822;SDS011;14852;51.910;8.878;2024-01-06T06:32:09;9.57;;;7.50;;
26822;SDS011;14852;51.910;8.878;2024-01-06T06:34:34;10.70;;;7.97;;
26822;SDS011;14852;51.910;8.878;2024-01-06T06:37:00;11.43;;;9.18;;
26822;SDS011;14852;51.910;8.878;2024-01-06T06:39:26;9.57;;;7.85;;
26822;SDS011;14852;51.910;8.878;2024-01-06T06:41:52;11.55;;;8.32;;
26822;SDS011;14852;51.910;8.878;2024-01-06T06:44:18;11.90;;;8.55;;
26822;SDS011;14852;51.910;8.878;2024-01-06T06:46:43;10.18;;;7.32;;
26822;SDS011;14852;51.910;8.878;2024-01-06T06:49:09;11.55;;;8.48;;
26822;SDS011;14852;51.910;8.878;2024-01-06T06:51:35;11.02;;;8.88;;
26822;SDS011;14852;51.910;8.878;2024-01-06T06:54:01;9.80;;;7.63;;
26822;SDS011;14852;51.910;8.878;2024-01-06T06:56:26;10.45;;;8.38;;
26822;SDS011;14852;51.910;8.878;2024-01-06T06:58:52;12.00;;;8.05;;
26822;SDS011;14852;51.910;8.878;2024-01-06T07:01:18;10.07;;;8.23;;
26822;SDS011;14852;51.910;8.878;2024-01-06T07:03:44;8.27;;;7.03;;
26822;SDS011;14852;51.910;8.878;2024-01-06T07:06:13;9.25;;;6.97;;
26822;SDS011;14852;51.910;8.878;2024-01-06T07:08:40;10.43;;;7.63;;
26822;SDS011;14852;51.910;8.878;2024-01-06T07:11:07;10.63;;;8.25;;
26822;SDS011;14852;51.910;8.878;2024-01-06T07:13:33;10.73;;;8.02;;
26822;SDS011;14852;51.910;8.878;2024-01-06T07:15:59;9.65;;;7.32;;
26822;SDS011;14852;51.910;8.878;2024-01-06T07:18:25;12.20;;;9.18;;
26822;SDS011;14852;51.910;8.878;2024-01-06T07:20:51;13.65;;;10.40;;
26822;SDS011;14852;51.910;8.878;2024-01-06T07:23:16;10.95;;;7.97;;
26822;SDS011;14852;51.910;8.878;2024-01-06T07:25:42;10.77;;;7.95;;
26822;SDS011;14852;51.910;8.878;2024-01-06T07:28:08;10.45;;;7.90;;
26822;SDS011;14852;51.910;8.878;2024-01-06T07:30:34;10.07;;;7.95;;
26822;SDS011;14852;51.910;8.878;2024-01-06T07:32:59;13.13;;;9.30;;
26822;SDS011;14852;51.910;8.878;2024-01-06T07:35:25;10.75;;;7.70;;
26822;SDS011;14852;51.910;8.878;2024-01-06T07:37:51;8.85;;;7.07;;
26822;SDS011;14852;51.910;8.878;2024-01-06T07:40:18;11.60;;;7.32;;
26822;SDS011;14852;51.910;8.878;2024-01-06T07:42:44;10.73;;;8.25;;
26822;SDS011;14852;51.910;8.878;2024-01-06T07:45:09;10.88;;;7.80;;
26822;SDS011;14852;51.910;8.878;2024-01-06T07:47:35;14.07;;;9.57;;
26822;SDS011;14852;51.910;8.878;2024-01-06T07:50:02;12.55;;;8.65;;
26822;SDS011;14852;51.910;8.878;2024-01-06T07:52:30;12.50;;;8.60;;
26822;SDS011;14852;51.910;8.878;2024-01-06T07:54:56;12.73;;;8.65;;
26822;SDS011;14852;51.910;8.878;2024-01-06T07:57:21;16.35;;;9.75;;
26822;SDS011;14852;51.910;8.878;2024-01-06T07:59:47;13.40;;;9.75;;
26822;SDS011;14852;51.910;8.878;2024-01-06T08:02:13;12.80;;;8.20;;
26822;SDS011;14852;51.910;8.878;2024-01-06T08:04:38;12.68;;;8.18;;
26822;SDS011;14852;51.910;8.878;2024-01-06T08:07:04;11.90;;;7.88;;
26822;SDS011;14852;51.910;8.878;2024-01-06T08:09:30;13.23;;;8.82;;
26822;SDS011;14852;51.910;8.878;2024-01-06T08:11:56;10.95;;;7.78;;
26822;SDS011;14852;51.910;8.878;2024-01-06T08:14:21;12.13;;;9.05;;
26822;SDS011;14852;51.910;8.878;2024-01-06T08:16:47;12.13;;;8.23;;
26822;SDS011;14852;51.910;8.878;2024-01-06T08:19:13;14.45;;;9.30;;
26822;SDS011;14852;51.910;8.878;2024-01-06T08:21:39;13.65;;;9.38;;
26822;SDS011;14852;51.910;8.878;2024-01-06T08:24:05;13.38;;;9.02;;
26822;SDS011;14852;51.910;8.878;2024-01-06T08:26:31;12.85;;;9.77;;
26822;SDS011;14852;51.910;8.878;2024-01-06T08:28:57;13.55;;;8.93;;
26822;SDS011;14852;51.910;8.878;2024-01-06T08:31:23;12.65;;;9.05;;
26822;SDS011;14852;51.910;8.878;2024-01-06T08:33:48;11.35;;;8.50;;
26822;SDS011;14852;51.910;8.878;2024-01-06T08:36:14;11.13;;;7.85;;
26822;SDS011;14852;51.910;8.878;2024-01-06T08:38:40;10.02;;;7.38;;
26822;SDS011;14852;51.910;8.878;2024-01-06T08:41:06;9.07;;;6.57;;
26822;SDS011;14852;51.910;8.878;2024-01-06T08:43:32;11.38;;;7.95;;
26822;SDS011;14852;51.910;8.878;2024-01-06T08:45:57;9.55;;;6.57;;
26822;SDS011;14852;51.910;8.878;2024-01-06T08:48:23;9.00;;;6.93;;
26822;SDS011;14852;51.910;8.878;2024-01-06T08:50:49;7.53;;;5.53;;
26822;SDS011;14852;51.910;8.878;2024-01-06T08:53:16;7.03;;;5.65;;
26822;SDS011;14852;51.910;8.878;2024-01-06T08:55:41;8.07;;;6.03;;
26822;SDS011;14852;51.910;8.878;2024-01-06T08:58:07;10.23;;;6.43;;
26822;SDS011;14852;51.910;8.878;2024-01-06T09:00:33;8.52;;;6.18;;
26822;SDS011;14852;51.910;8.878;2024-01-06T09:02:58;10.55;;;5.95;;
26822;SDS011;14852;51.910;8.878;2024-01-06T09:05:25;7.82;;;5.78;;
26822;SDS011;14852;51.910;8.878;2024-01-06T09:07:50;11.25;;;6.45;;
26822;SDS011;14852;51.910;8.878;2024-01-06T09:10:19;9.07;;;5.75;;
26822;SDS011;14852;51.910;8.878;2024-01-06T09:12:45;9.05;;;6.53;;
26822;SDS011;14852;51.910;8.878;2024-01-06T09:15:10;8.75;;;6.43;;
26822;SDS011;14852;51.910;8.878;2024-01-06T09:17:36;8.70;;;6.25;;
26822;SDS011;14852;51.910;8.878;2024-01-06T09:20:02;9.32;;;6.13;;
26822;SDS011;14852;51.910;8.878;2024-01-06T09:22:28;9.90;;;6.22;;
26822;SDS011;14852;51.910;8.878;2024-01-06T09:24:54;8.85;;;6.28;;
26822;SDS011;14852;51.910;8.878;2024-01-06T09:27:20;8.25;;;5.85;;
26822;SDS011;14852;51.910;8.878;2024-01-06T09:29:45;10.18;;;6.20;;
26822;SDS011;14852;51.910;8.878;2024-01-06T09:32:11;8.43;;;6.18;;
26822;SDS011;14852;51.910;8.878;2024-01-06T09:34:38;8.50;;;6.15;;
26822;SDS011;14852;51.910;8.878;2024-01-06T09:37:04;7.78;;;5.80;;
26822;SDS011;14852;51.910;8.878;2024-01-06T09:39:30;8.45;;;6.03;;
26822;SDS011;14852;51.910;8.878;2024-01-06T09:41:58;7.80;;;5.75;;
26822;SDS011;14852;51.910;8.878;2024-01-06T09:44:24;9.02;;;5.80;;
26822;SDS011;14852;51.910;8.878;2024-01-06T09:46:50;9.93;;;7.43;;
26822;SDS011;14852;51.910;8.878;2024-01-06T09:49:17;11.00;;;7.63;;
26822;SDS011;14852;51.910;8.878;2024-01-06T09:51:48;10.95;;;7.55;;
26822;SDS011;14852;51.910;8.878;2024-01-06T09:54:16;12.73;;;7.93;;
26822;SDS011;14852;51.910;8.878;2024-01-06T09:56:51;13.40;;;8.32;;
26822;SDS011;14852;51.910;8.878;2024-01-06T09:59:16;12.55;;;8.55;;
26822;SDS011;14852;51.910;8.878;2024-01-06T10:01:45;11.63;;;8.07;;
26822;SDS011;14852;51.910;8.878;2024-01-06T10:04:10;10.93;;;8.35;;
26822;SDS011;14852;51.910;8.878;2024-01-06T10:06:36;9.43;;;7.30;;
26822;SDS011;14852;51.910;8.878;2024-01-06T10:09:02;12.50;;;7.80;;
26822;SDS011;14852;51.910;8.878;2024-01-06T10:11:30;10.18;;;8.43;;
26822;SDS011;14852;51.910;8.878;2024-01-06T10:13:56;9.60;;;7.88;;
26822;SDS011;14852;51.910;8.878;2024-01-06T10:16:21;11.20;;;8.80;;
26822;SDS011;14852;51.910;8.878;2024-01-06T10:18:47;11.57;;;8.18;;
26822;SDS011;14852;51.910;8.878;2024-01-06T10:21:13;10.48;;;7.72;;
26822;SDS011;14852;51.910;8.878;2024-01-06T10:23:42;8.52;;;6.90;;
26822;SDS011;14852;51.910;8.878;2024-01-06T10:26:13;8.57;;;6.63;;
26822;SDS011;14852;51.910;8.878;2024-01-06T10:28:39;7.10;;;5.80;;
26822;SDS011;14852;51.910;8.878;2024-01-06T10:31:07;7.78;;;5.35;;
26822;SDS011;14852;51.910;8.878;2024-01-06T10:36:05;8.32;;;5.82;;
26822;SDS011;14852;51.910;8.878;2024-01-06T10:38:33;6.80;;;5.70;;
26822;SDS011;14852;51.910;8.878;2024-01-06T10:41:00;6.40;;;4.57;;
26822;SDS011;14852;51.910;8.878;2024-01-06T10:43:32;9.38;;;5.57;;
26822;SDS011;14852;51.910;8.878;2024-01-06T10:46:05;6.78;;;5.15;;
26822;SDS011;14852;51.910;8.878;2024-01-06T10:48:36;8.60;;;5.22;;
26822;SDS011;14852;51.910;8.878;2024-01-06T10:51:07;7.43;;;5.32;;
26822;SDS011;14852;51.910;8.878;2024-01-06T10:53:34;5.30;;;4.35;;
26822;SDS011;14852;51.910;8.878;2024-01-06T10:56:05;6.90;;;4.93;;
26822;SDS011;14852;51.910;8.878;2024-01-06T10:58:33;7.32;;;4.85;;
26822;SDS011;14852;51.910;8.878;2024-01-06T11:01:08;5.72;;;4.15;;
26822;SDS011;14852;51.910;8.878;2024-01-06T11:03:36;6.00;;;4.53;;
26822;SDS011;14852;51.910;8.878;2024-01-06T11:06:04;6.32;;;4.75;;
26822;SDS011;14852;51.910;8.878;2024-01-06T11:08:33;6.47;;;4.75;;
26822;SDS011;14852;51.910;8.878;2024-01-06T11:11:15;6.95;;;5.45;;
26822;SDS011;14852;51.910;8.878;2024-01-06T11:13:43;8.40;;;5.28;;
26822;SDS011;14852;51.910;8.878;2024-01-06T11:16:10;8.02;;;5.25;;
26822;SDS011;14852;51.910;8.878;2024-01-06T11:18:39;8.13;;;5.68;;
26822;SDS011;14852;51.910;8.878;2024-01-06T11:23:40;5.47;;;4.43;;
26822;SDS011;14852;51.910;8.878;2024-01-06T11:26:08;7.28;;;5.32;;
26822;SDS011;14852;51.910;8.878;2024-01-06T11:28:47;6.13;;;5.10;;
26822;SDS011;14852;51.910;8.878;2024-01-06T11:31:13;6.57;;;5.38;;
26822;SDS011;14852;51.910;8.878;2024-01-06T11:33:42;8.45;;;5.50;;
26822;SDS011;14852;51.910;8.878;2024-01-06T11:36:09;6.07;;;4.85;;
26822;SDS011;14852;51.910;8.878;2024-01-06T11:38:39;8.27;;;5.75;;
26822;SDS011;14852;51.910;8.878;2024-01-06T11:41:08;6.22;;;4.80;;
26822;SDS011;14852;51.910;8.878;2024-01-06T11:43:37;6.97;;;5.40;;
26822;SDS011;14852;51.910;8.878;2024-01-06T11:46:05;7.72;;;5.18;;
26822;SDS011;14852;51.910;8.878;2024-01-06T11:48:32;7.80;;;6.00;;
26822;SDS011;14852;51.910;8.878;2024-01-06T11:50:58;7.10;;;5.40;;
26822;SDS011;14852;51.910;8.878;2024-01-06T11:53:26;7.03;;;5.50;;
26822;SDS011;14852;51.910;8.878;2024-01-06T11:55:55;8.13;;;4.82;;
26822;SDS011;14852;51.910;8.878;2024-01-06T11:58:20;7.95;;;5.70;;
26822;SDS011;14852;51.910;8.878;2024-01-06T12:00:54;5.97;;;4.20;;
26822;SDS011;14852;51.910;8.878;2024-01-06T12:03:22;6.85;;;5.50;;
26822;SDS011;14852;51.910;8.878;2024-01-06T12:06:00;8.13;;;6.05;;
26822;SDS011;14852;51.910;8.878;2024-01-06T12:08:27;7.45;;;5.22;;
26822;SDS011;14852;51.910;8.878;2024-01-06T12:11:03;7.63;;;5.97;;
26822;SDS011;14852;51.910;8.878;2024-01-06T12:13:30;7.10;;;5.10;;
26822;SDS011;14852;51.910;8.878;2024-01-06T12:15:56;6.15;;;4.35;;
26822;SDS011;14852;51.910;8.878;2024-01-06T12:18:22;6.88;;;4.93;;
26822;SDS011;14852;51.910;8.878;2024-01-06T12:20:52;9.35;;;6.07;;
26822;SDS011;14852;51.910;8.878;2024-01-06T12:23:27;7.93;;;5.65;;
26822;SDS011;14852;51.910;8.878;2024-01-06T12:25:54;8.60;;;6.45;;
26822;SDS011;14852;51.910;8.878;2024-01-06T12:28:21;8.23;;;6.38;;
26822;SDS011;14852;51.910;8.878;2024-01-06T12:30:46;8.18;;;5.75;;
26822;SDS011;14852;51.910;8.878;2024-01-06T12:33:12;10.13;;;6.80;;
26822;SDS011;14852;51.910;8.878;2024-01-06T12:35:39;7.68;;;5.22;;
26822;SDS011;14852;51.910;8.878;2024-01-06T12:38:06;7.20;;;4.88;;
26822;SDS011;14852;51.910;8.878;2024-01-06T12:40:37;7.50;;;5.75;;
26822;SDS011;14852;51.910;8.878;2024-01-06T12:43:06;8.63;;;5.47;;
26822;SDS011;14852;51.910;8.878;2024-01-06T12:45:32;9.32;;;5.78;;
26822;SDS011;14852;51.910;8.878;2024-01-06T12:47:58;10.07;;;6.00;;
26822;SDS011;14852;51.910;8.878;2024-01-06T12:50:23;7.88;;;5.78;;
26822;SDS011;14852;51.910;8.878;2024-01-06T12:52:49;9.68;;;6.32;;
26822;SDS011;14852;51.910;8.878;2024-01-06T12:55:15;8.43;;;5.68;;
26822;SDS011;14852;51.910;8.878;2024-01-06T12:57:42;10.57;;;4.65;;
26822;SDS011;14852;51.910;8.878;2024-01-06T13:00:08;9.43;;;5.35;;
26822;SDS011;14852;51.910;8.878;2024-01-06T13:02:37;5.72;;;4.50;;
26822;SDS011;14852;51.910;8.878;2024-01-06T13:05:03;5.72;;;4.05;;
26822;SDS011;14852;51.910;8.878;2024-01-06T13:07:29;6.43;;;4.30;;
26822;SDS011;14852;51.910;8.878;2024-01-06T13:09:55;6.20;;;4.63;;
26822;SDS011;14852;51.910;8.878;2024-01-06T13:12:21;6.53;;;3.92;;
26822;SDS011;14852;51.910;8.878;2024-01-06T13:14:48;4.93;;;3.17;;
26822;SDS011;14852;51.910;8.878;2024-01-06T13:17:15;4.30;;;3.30;;
26822;SDS011;14852;51.910;8.878;2024-01-06T13:19:42;5.63;;;3.75;;
26822;SDS011;14852;51.910;8.878;2024-01-06T13:22:07;3.20;;;2.58;;
26822;SDS011;14852;51.910;8.878;2024-01-06T13:24:33;3.75;;;2.95;;
26822;SDS011;14852;51.910;8.878;2024-01-06T13:26:59;3.42;;;2.63;;
26822;SDS011;14852;51.910;8.878;2024-01-06T13:29:27;4.40;;;3.08;;
26822;SDS011;14852;51.910;8.878;2024-01-06T13:31:54;3.72;;;2.80;;
26822;SDS011;14852;51.910;8.878;2024-01-06T13:34:20;3.58;;;2.47;;
26822;SDS011;14852;51.910;8.878;2024-01-06T13:36:46;2.42;;;2.10;;
26822;SDS011;14852;51.910;8.878;2024-01-06T13:39:12;4.78;;;2.92;;
26822;SDS011;14852;51.910;8.878;2024-01-06T13:41:48;4.80;;;3.13;;
26822;SDS011;14852;51.910;8.878;2024-01-06T13:44:14;5.05;;;2.58;;
26822;SDS011;14852;51.910;8.878;2024-01-06T13:46:40;5.00;;;2.50;;
26822;SDS011;14852;51.910;8.878;2024-01-06T13:49:10;3.67;;;2.65;;
26822;SDS011;14852;51.910;8.878;2024-01-06T13:51:36;4.20;;;3.03;;
26822;SDS011;14852;51.910;8.878;2024-01-06T13:54:04;3.65;;;2.85;;
26822;SDS011;14852;51.910;8.878;2024-01-06T13:56:30;3.78;;;2.60;;
26822;SDS011;14852;51.910;8.878;2024-01-06T13:58:55;4.75;;;3.40;;
26822;SDS011;14852;51.910;8.878;2024-01-06T14:01:22;4.43;;;3.35;;
26822;SDS011;14852;51.910;8.878;2024-01-06T14:03:49;4.55;;;3.35;;
26822;SDS011;14852;51.910;8.878;2024-01-06T14:06:15;5.75;;;3.58;;
26822;SDS011;14852;51.910;8.878;2024-01-06T14:08:42;5.85;;;3.53;;
26822;SDS011;14852;51.910;8.878;2024-01-06T14:11:08;5.10;;;3.17;;
26822;SDS011;14852;51.910;8.878;2024-01-06T14:13:34;4.50;;;3.08;;
26822;SDS011;14852;51.910;8.878;2024-01-06T14:16:00;4.18;;;3.00;;
26822;SDS011;14852;51.910;8.878;2024-01-06T14:18:26;5.30;;;3.20;;
26822;SDS011;14852;51.910;8.878;2024-01-06T14:20:52;6.28;;;3.22;;
26822;SDS011;14852;51.910;8.878;2024-01-06T14:23:20;4.38;;;2.70;;
26822;SDS011;14852;51.910;8.878;2024-01-06T14:25:46;4.05;;;2.75;;
26822;SDS011;14852;51.910;8.878;2024-01-06T14:28:12;3.85;;;2.75;;
26822;SDS011;14852;51.910;8.878;2024-01-06T14:30:38;4.13;;;3.00;;
26822;SDS011;14852;51.910;8.878;2024-01-06T14:33:04;4.43;;;3.20;;
26822;SDS011;14852;51.910;8.878;2024-01-06T14:35:29;5.07;;;3.08;;
26822;SDS011;14852;51.910;8.878;2024-01-06T14:37:55;4.95;;;3.03;;
26822;SDS011;14852;51.910;8.878;2024-01-06T14:40:21;2.58;;;2.00;;
26822;SDS011;14852;51.910;8.878;2024-01-06T14:42:47;3.33;;;2.60;;
26822;SDS011;14852;51.910;8.878;2024-01-06T14:45:13;3.35;;;2.63;;
26822;SDS011;14852;51.910;8.878;2024-01-06T14:47:39;3.53;;;2.80;;